Chiang Mai, Thaimaa

19. helmikuuta 2018 klo 03:11 (ICT) (GMT +0700)
Mae Ta, Mae Ta, Chiang Mai 50130, Thailand | | Change Station

Kork 1532 ft 18.59 °N, 99.26 °E | Updated 24 seconds ago

Puolipilvistä
Puolipilvistä
58.6 °F
Tuntuu kuin 58.6 °F
N
0.0
Tuuli Suunnaltaan vaihteleva Tuuli ilmansuunnasta Lounas
Gusts 0.0 mph

Tänään
Korkea -- | Matala -- °F
--% Sateen mahd.
Eilen
Korkea -- | Matala -- °F
Precip. -- tuumaa
Ilmanpaine 29.92 tuumaa
Näkyvyys -9999.0 mailia
Pilviä
Kastepiste 58 °F
Ilmankosteus 96%
Sademäärä 0.00 tuumaa
Lumensyvyys Ei saatavilla
6:48 AM 6:23 PM
Kasvava sirppi, 9% visible
METAR VTCC 182000Z 00000KT CAVOK 20/12 Q1013 NOSIG
Ilmanpaine 29.92 tuumaa
Näkyvyys -9999.0 mailia
Pilviä
Kastepiste 58 °F
Ilmankosteus 96%
Sademäärä 0.00 tuumaa
Lumensyvyys Ei saatavilla
6:48 AM 6:23 PM
Kasvava sirppi, 9% visible
METAR VTCC 182000Z 00000KT CAVOK 20/12 Q1013 NOSIG

Get Severe Weather Alerts

Thanks for signing up!

Be on the lookout for a verification email in your inbox.

You'll start receiving the daily forecast at 6 AM.

×

10-Day Weather Forecast

No radar image for this location.
×

Almanac

Tähtitiede

Feb. 19, 2018 Nousuaika Laskuaika
Valoisa aika
Porvarillinen hämärä
Nauttinen hämärä
Astronominen hämärä
Kuu
Näkyvän valon pituus
Päivän pituus
Tomorrow will be .
, % of the Moon is Illuminated

Tämän päivän ennätykset

Country Highs Country Lows

Community

WunderPhotos

Category 6

Welcome to Category 6. This is the collective home for Weather Underground's featured writeups by Dr. Jeff Masters (right), Bob Henson (left), Chris Burt, and other regular contributors.

Nearby

Ilmanlaatu

  Ilmanlaatu AQ Index Pollutant
Not available.

Lumensyvyys

Station Depth Korkeus

Maanjäristysaktiivisuus

Paikkakunta Distance Mag. Time & Date
Minimum magnitude displayed is 2.5.

Coastal Water Temperatures

Paikka Lämpötila

Stations

Lähimmät sääasemat

Aseman sijainti Lämpötila Tuulen hyytävyys Kastepiste Ilmankosteus Tuuli Precip. Kork Päivitetty Tyyppi